Time;durP1;ratioP1;P1;durP2;ratioP2;P2;SDS_P1;SDS_P2;PMS_P1;PMS_P2;Temp;Humidity;BMP_temperature;BMP_pressure;BME280_temperature;BME280_humidity;BME280_pressure;Samples;Min_cycle;Max_cycle;Signal;HPM_P1;HPM_P2
2022/07/29 00:02:00;;;;;;;15.95;14.45;;;;;;;;;;4967165;28;20089;-70
2022/07/29 00:04:26;;;;;;;17.17;15.52;;;;;;;;;;4959345;28;20036;-70
2022/07/29 00:06:52;;;;;;;16.38;14.95;;;;;;;;;;4963149;28;20093;-70
2022/07/29 00:09:17;;;;;;;17.00;15.50;;;;;;;;;;4965563;28;20039;-70
2022/07/29 00:11:43;;;;;;;17.20;15.70;;;;;;;;;;4962547;28;20046;-70
2022/07/29 00:14:09;;;;;;;17.90;16.30;;;;;;;;;;4978830;28;20894;-70
2022/07/29 00:16:35;;;;;;;17.90;16.33;;;;;;;;;;4973799;28;20042;-70
2022/07/29 00:19:00;;;;;;;20.73;18.73;;;;;;;;;;4981025;28;20044;-70
2022/07/29 00:21:26;;;;;;;20.13;18.35;;;;;;;;;;4971925;28;20033;-70
2022/07/29 00:23:51;;;;;;;20.77;18.80;;;;;;;;;;4969876;28;20500;-70
2022/07/29 00:26:17;;;;;;;22.38;20.38;;;;;;;;;;4976102;28;20033;-70
2022/07/29 00:28:43;;;;;;;22.30;19.38;;;;;;;;;;4962819;28;20085;-70
2022/07/29 00:31:08;;;;;;;22.27;19.98;;;;;;;;;;4971104;28;20047;-70
2022/07/29 00:33:34;;;;;;;22.60;20.55;;;;;;;;;;4965243;28;20067;-70
2022/07/29 00:35:59;;;;;;;22.38;20.17;;;;;;;;;;4968227;28;20114;-70
2022/07/29 00:38:25;;;;;;;22.33;20.10;;;;;;;;;;4987449;28;20047;-70
2022/07/29 00:40:50;;;;;;;19.90;18.17;;;;;;;;;;4968263;28;20442;-70
2022/07/29 00:43:16;;;;;;;19.85;17.73;;;;;;;;;;4971878;28;20094;-70
2022/07/29 00:45:42;;;;;;;19.75;17.83;;;;;;;;;;4962995;28;20035;-70
2022/07/29 00:48:08;;;;;;;18.67;16.73;;;;;;;;;;4982882;28;20035;-70
2022/07/29 00:50:35;;;;;;;19.10;16.73;;;;;;;;;;4963577;28;20430;-70
2022/07/29 00:53:03;;;;;;;19.10;17.33;;;;;;;;;;4975087;28;20120;-70
2022/07/29 00:55:28;;;;;;;18.20;16.60;;;;;;;;;;4977796;28;20388;-69
2022/07/29 00:57:54;;;;;;;18.73;17.02;;;;;;;;;;4962714;28;20493;-69
2022/07/29 01:00:24;;;;;;;19.15;17.15;;;;;;;;;;4964946;28;20033;-69
2022/07/29 01:02:50;;;;;;;18.50;16.95;;;;;;;;;;4961306;28;20041;-70
2022/07/29 01:05:24;;;;;;;19.38;17.70;;;;;;;;;;4983585;28;20047;-69
2022/07/29 01:07:53;;;;;;;18.67;17.08;;;;;;;;;;4954973;28;20045;-70
2022/07/29 01:10:20;;;;;;;18.85;17.20;;;;;;;;;;4965184;28;20035;-69
2022/07/29 01:12:48;;;;;;;18.13;16.60;;;;;;;;;;4982868;28;20034;-69
2022/07/29 01:15:14;;;;;;;18.98;17.23;;;;;;;;;;4977948;28;20039;-69
2022/07/29 01:17:47;;;;;;;18.88;17.17;;;;;;;;;;4955809;28;20556;-69
2022/07/29 01:20:50;;;;;;;18.83;17.20;;;;;;;;;;4984152;28;20320;-69
2022/07/29 01:23:57;;;;;;;19.15;17.35;;;;;;;;;;4968945;28;20105;-69
2022/07/29 01:26:42;;;;;;;20.23;18.13;;;;;;;;;;4959275;28;20981;-69
2022/07/29 01:29:19;;;;;;;19.95;18.08;;;;;;;;;;4966804;28;20035;-69
2022/07/29 01:31:48;;;;;;;20.33;18.45;;;;;;;;;;4962407;28;20112;-69
2022/07/29 01:34:22;;;;;;;20.02;18.20;;;;;;;;;;4965188;28;20031;-69
2022/07/29 01:36:53;;;;;;;21.38;19.17;;;;;;;;;;4981365;28;20033;-69
2022/07/29 01:39:22;;;;;;;20.98;18.98;;;;;;;;;;4967099;28;20491;-69
2022/07/29 01:42:00;;;;;;;20.60;18.60;;;;;;;;;;4946737;28;20062;-69
2022/07/29 01:44:31;;;;;;;19.98;18.05;;;;;;;;;;4955740;28;20041;-69
2022/07/29 01:47:00;;;;;;;19.73;17.90;;;;;;;;;;4971260;28;20039;-69
2022/07/29 01:49:28;;;;;;;19.23;17.50;;;;;;;;;;4948774;28;20039;-69
2022/07/29 01:52:40;;;;;;;20.05;18.08;;;;;;;;;;4962897;28;20299;-69
2022/07/29 01:55:14;;;;;;;20.35;18.52;;;;;;;;;;4940904;28;20054;-69
2022/07/29 01:57:43;;;;;;;22.10;20.10;;;;;;;;;;4964628;28;20035;-69
2022/07/29 02:00:10;;;;;;;24.02;21.63;;;;;;;;;;4966034;28;20047;-69
2022/07/29 02:02:43;;;;;;;24.65;22.25;;;;;;;;;;4978788;28;20027;-69
2022/07/29 02:05:12;;;;;;;23.65;21.33;;;;;;;;;;5000428;28;20043;-69
2022/07/29 02:07:41;;;;;;;24.10;21.75;;;;;;;;;;4960035;28;20043;-69
2022/07/29 02:10:09;;;;;;;24.33;21.80;;;;;;;;;;4960824;28;20093;-69
2022/07/29 02:12:36;;;;;;;22.63;20.40;;;;;;;;;;4990751;28;20508;-69
2022/07/29 02:15:05;;;;;;;20.13;18.33;;;;;;;;;;4953290;28;20768;-70
2022/07/29 02:17:45;;;;;;;19.48;17.63;;;;;;;;;;4953625;28;20100;-70
2022/07/29 02:20:12;;;;;;;19.73;18.00;;;;;;;;;;4985757;28;20036;-70
2022/07/29 02:22:39;;;;;;;20.92;19.05;;;;;;;;;;4957624;28;20049;-70
2022/07/29 02:25:07;;;;;;;24.13;21.85;;;;;;;;;;4968395;28;20043;-70
2022/07/29 02:27:34;;;;;;;22.88;20.40;;;;;;;;;;4973436;28;20056;-70
2022/07/29 02:30:03;;;;;;;25.45;22.95;;;;;;;;;;4966141;28;20039;-70
2022/07/29 02:32:30;;;;;;;24.97;22.33;;;;;;;;;;4951392;28;20035;-70
2022/07/29 02:34:57;;;;;;;23.55;21.15;;;;;;;;;;4976035;28;20303;-70
2022/07/29 02:37:24;;;;;;;21.98;19.85;;;;;;;;;;4975158;28;20021;-70
2022/07/29 02:39:53;;;;;;;22.30;20.15;;;;;;;;;;4987157;28;20041;-70
2022/07/29 02:42:22;;;;;;;21.88;19.77;;;;;;;;;;4986121;28;20035;-70
2022/07/29 02:44:48;;;;;;;22.38;19.52;;;;;;;;;;5000168;28;20455;-70
2022/07/29 02:47:20;;;;;;;19.60;17.70;;;;;;;;;;4977565;28;20036;-70
2022/07/29 02:50:10;;;;;;;20.15;18.17;;;;;;;;;;4963629;28;20043;-70
2022/07/29 02:52:47;;;;;;;19.10;17.17;;;;;;;;;;4984096;28;20119;-70
2022/07/29 02:55:21;;;;;;;18.85;17.35;;;;;;;;;;5015227;28;20162;-70
2022/07/29 02:57:54;;;;;;;19.13;17.20;;;;;;;;;;4974814;28;20050;-70
2022/07/29 03:00:21;;;;;;;18.42;16.83;;;;;;;;;;4969892;28;20045;-70
2022/07/29 03:02:51;;;;;;;18.40;16.73;;;;;;;;;;4966023;28;20031;-70
2022/07/29 03:05:19;;;;;;;18.52;16.63;;;;;;;;;;4983572;28;20044;-70
2022/07/29 03:07:49;;;;;;;18.70;17.00;;;;;;;;;;4969110;28;20144;-70
2022/07/29 03:10:15;;;;;;;19.05;17.30;;;;;;;;;;4973528;28;20112;-70
2022/07/29 03:12:42;;;;;;;18.77;17.13;;;;;;;;;;4951638;28;20031;-70
2022/07/29 03:15:08;;;;;;;18.75;17.25;;;;;;;;;;4979888;28;20731;-70
2022/07/29 03:17:34;;;;;;;19.48;17.77;;;;;;;;;;4962687;28;20058;-69
2022/07/29 03:20:01;;;;;;;21.33;19.27;;;;;;;;;;4984227;28;20035;-69
2022/07/29 03:22:27;;;;;;;20.52;18.73;;;;;;;;;;4992139;28;20043;-69
2022/07/29 03:24:52;;;;;;;23.25;20.88;;;;;;;;;;4975646;28;20034;-69
2022/07/29 03:27:18;;;;;;;23.92;21.63;;;;;;;;;;4962090;28;20584;-69
2022/07/29 03:29:44;;;;;;;24.05;21.40;;;;;;;;;;4992804;28;20071;-69
2022/07/29 03:32:09;;;;;;;22.95;20.75;;;;;;;;;;4989644;28;20098;-69
2022/07/29 03:34:37;;;;;;;22.98;20.77;;;;;;;;;;4973654;28;20038;-68
2022/07/29 03:37:03;;;;;;;21.50;19.60;;;;;;;;;;4984596;28;20039;-68
2022/07/29 03:39:32;;;;;;;21.40;19.23;;;;;;;;;;4971700;28;20110;-68
2022/07/29 03:42:00;;;;;;;23.33;21.25;;;;;;;;;;4982061;28;20035;-68
2022/07/29 03:44:27;;;;;;;23.55;21.10;;;;;;;;;;4977713;28;20079;-68
2022/07/29 03:46:55;;;;;;;22.85;20.73;;;;;;;;;;4959934;28;20050;-68
2022/07/29 03:49:21;;;;;;;22.15;20.08;;;;;;;;;;4960004;28;20123;-68
2022/07/29 03:51:47;;;;;;;21.40;19.40;;;;;;;;;;5000689;28;20032;-68
2022/07/29 03:54:13;;;;;;;23.23;20.92;;;;;;;;;;4971719;28;20413;-68
2022/07/29 03:56:47;;;;;;;22.45;20.30;;;;;;;;;;4974039;28;20031;-68
2022/07/29 03:59:14;;;;;;;22.25;20.15;;;;;;;;;;4960013;28;20027;-68
2022/07/29 04:01:41;;;;;;;18.58;17.08;;;;;;;;;;4996093;28;20782;-68
2022/07/29 04:04:07;;;;;;;19.73;18.02;;;;;;;;;;5004500;28;20064;-68
2022/07/29 04:06:44;;;;;;;27.75;20.98;;;;;;;;;;4960681;28;20506;-68
2022/07/29 04:09:10;;;;;;;24.20;21.70;;;;;;;;;;5011959;28;20632;-67
2022/07/29 04:11:38;;;;;;;25.25;22.73;;;;;;;;;;4973868;28;20039;-68
2022/07/29 04:14:03;;;;;;;23.48;21.38;;;;;;;;;;4960959;28;20109;-67
2022/07/29 04:16:29;;;;;;;22.15;19.90;;;;;;;;;;4976286;28;20465;-68
2022/07/29 04:18:55;;;;;;;20.52;18.45;;;;;;;;;;4972093;28;20033;-68
2022/07/29 04:21:21;;;;;;;20.55;18.55;;;;;;;;;;4970906;28;20025;-68
2022/07/29 04:23:49;;;;;;;20.50;18.63;;;;;;;;;;4982106;28;20496;-68
2022/07/29 04:26:16;;;;;;;19.90;18.20;;;;;;;;;;4971186;28;20065;-68
2022/07/29 04:28:42;;;;;;;19.33;17.65;;;;;;;;;;4966214;28;20035;-68
2022/07/29 04:31:09;;;;;;;19.63;17.83;;;;;;;;;;4965237;28;20033;-68
2022/07/29 04:33:34;;;;;;;19.10;17.40;;;;;;;;;;4973065;28;20047;-67
2022/07/29 04:36:00;;;;;;;21.25;19.35;;;;;;;;;;4954063;28;20386;-68
2022/07/29 04:38:25;;;;;;;21.77;19.58;;;;;;;;;;4982601;28;20025;-68
2022/07/29 04:40:51;;;;;;;22.52;20.40;;;;;;;;;;4967022;28;20035;-68
2022/07/29 04:43:16;;;;;;;21.88;19.88;;;;;;;;;;4994098;28;20033;-68
2022/07/29 04:45:42;;;;;;;21.73;19.63;;;;;;;;;;4973375;28;20124;-68
2022/07/29 04:48:08;;;;;;;20.95;19.15;;;;;;;;;;4970149;28;20047;-67
2022/07/29 04:50:33;;;;;;;20.58;18.60;;;;;;;;;;4977917;28;20090;-67
2022/07/29 04:52:59;;;;;;;23.05;20.33;;;;;;;;;;4983474;28;20036;-68
2022/07/29 04:55:25;;;;;;;25.58;21.83;;;;;;;;;;4994846;28;20042;-68
2022/07/29 04:57:50;;;;;;;25.17;22.75;;;;;;;;;;4961512;28;20046;-68
2022/07/29 05:00:16;;;;;;;24.90;22.50;;;;;;;;;;4971454;28;20037;-67
2022/07/29 05:02:42;;;;;;;23.58;21.25;;;;;;;;;;4940625;28;20050;-69
2022/07/29 05:05:08;;;;;;;23.00;20.80;;;;;;;;;;4979184;28;20047;-69
2022/07/29 05:07:33;;;;;;;23.23;20.77;;;;;;;;;;4957664;28;20105;-70
2022/07/29 05:09:59;;;;;;;21.05;19.05;;;;;;;;;;4965506;28;20101;-70
2022/07/29 05:12:25;;;;;;;21.23;19.08;;;;;;;;;;4984624;28;20046;-70
2022/07/29 05:14:51;;;;;;;19.55;17.58;;;;;;;;;;4970448;28;20092;-70
2022/07/29 05:17:16;;;;;;;18.02;16.42;;;;;;;;;;4966576;28;20037;-70
2022/07/29 05:19:42;;;;;;;18.40;16.65;;;;;;;;;;4957597;28;20031;-70
2022/07/29 05:22:07;;;;;;;18.70;17.00;;;;;;;;;;5007608;28;20040;-70
2022/07/29 05:24:33;;;;;;;16.65;15.20;;;;;;;;;;4973718;28;20126;-70
2022/07/29 05:26:58;;;;;;;17.02;15.73;;;;;;;;;;4962786;28;20039;-70
2022/07/29 05:29:24;;;;;;;16.75;15.23;;;;;;;;;;4998754;28;20033;-70
2022/07/29 05:31:51;;;;;;;17.05;15.75;;;;;;;;;;4974523;28;20368;-70
2022/07/29 05:34:18;;;;;;;17.52;15.75;;;;;;;;;;4996232;28;20098;-70
2022/07/29 05:36:44;;;;;;;16.55;15.15;;;;;;;;;;4994484;28;20032;-70
2022/07/29 05:39:10;;;;;;;16.08;14.52;;;;;;;;;;4979485;28;20050;-70
2022/07/29 05:41:36;;;;;;;16.15;14.73;;;;;;;;;;4998511;28;20027;-70
2022/07/29 05:44:02;;;;;;;15.70;14.40;;;;;;;;;;4976912;28;20070;-70
2022/07/29 05:46:28;;;;;;;16.88;15.57;;;;;;;;;;4978365;28;20037;-71
2022/07/29 05:48:53;;;;;;;16.48;15.07;;;;;;;;;;4966849;28;20046;-70
2022/07/29 05:51:19;;;;;;;18.55;16.90;;;;;;;;;;4961634;28;20547;-71
2022/07/29 05:53:45;;;;;;;15.10;14.00;;;;;;;;;;4971766;28;20155;-70
2022/07/29 05:56:10;;;;;;;14.65;13.57;;;;;;;;;;4953943;28;20055;-70
2022/07/29 05:58:36;;;;;;;13.98;12.63;;;;;;;;;;4968493;28;20499;-70
2022/07/29 06:01:02;;;;;;;14.23;13.13;;;;;;;;;;4974351;28;20082;-70
2022/07/29 06:03:28;;;;;;;14.80;13.50;;;;;;;;;;4959381;28;20663;-70
2022/07/29 06:05:53;;;;;;;14.02;12.80;;;;;;;;;;5007958;28;20399;-71
2022/07/29 06:08:19;;;;;;;14.00;12.90;;;;;;;;;;4956385;28;20471;-71
2022/07/29 06:10:45;;;;;;;14.05;12.85;;;;;;;;;;4958133;28;20067;-70
2022/07/29 06:13:12;;;;;;;14.07;12.95;;;;;;;;;;4978318;28;20061;-70
2022/07/29 06:15:38;;;;;;;14.10;13.10;;;;;;;;;;4966480;28;20089;-70
2022/07/29 06:18:03;;;;;;;14.90;13.80;;;;;;;;;;4959027;28;20035;-70
2022/07/29 06:20:30;;;;;;;14.57;13.25;;;;;;;;;;4955720;28;20139;-71
2022/07/29 06:22:56;;;;;;;13.45;12.45;;;;;;;;;;5021596;28;20120;-71
2022/07/29 06:25:22;;;;;;;13.05;12.15;;;;;;;;;;4956834;28;20566;-70
2022/07/29 06:27:47;;;;;;;13.32;12.32;;;;;;;;;;4957660;28;20051;-70
2022/07/29 06:30:13;;;;;;;12.95;11.95;;;;;;;;;;4979842;28;20114;-70
2022/07/29 06:32:39;;;;;;;13.43;12.50;;;;;;;;;;4985396;28;20049;-70
2022/07/29 06:35:05;;;;;;;12.50;11.60;;;;;;;;;;4977062;28;20118;-70
2022/07/29 06:37:31;;;;;;;12.35;11.45;;;;;;;;;;4993223;28;20036;-70
2022/07/29 06:42:44;;;;;;;11.77;10.98;;;;;;;;;;5010541;28;20312;-70
2022/07/29 06:45:13;;;;;;;11.93;10.93;;;;;;;;;;4973825;28;20054;-69
2022/07/29 06:47:38;;;;;;;;;;;;;;;;;;5006621;28;20040;-70
2022/07/29 06:50:04;;;;;;;11.10;10.40;;;;;;;;;;5018189;28;19913;-70
2022/07/29 06:52:30;;;;;;;11.75;10.77;;;;;;;;;;4973329;28;20053;-70
2022/07/29 06:54:56;;;;;;;10.48;9.77;;;;;;;;;;4982476;28;20641;-70
2022/07/29 06:57:22;;;;;;;10.98;10.18;;;;;;;;;;4976150;28;20106;-70
2022/07/29 06:59:47;;;;;;;10.30;9.43;;;;;;;;;;4976001;28;20194;-70
2022/07/29 07:02:13;;;;;;;10.90;10.10;;;;;;;;;;4964358;28;20639;-71
2022/07/29 07:04:39;;;;;;;10.38;9.57;;;;;;;;;;4962190;28;20609;-71
2022/07/29 07:07:04;;;;;;;9.50;8.80;;;;;;;;;;4961015;28;20036;-71
2022/07/29 07:09:30;;;;;;;8.95;8.25;;;;;;;;;;4957082;28;20039;-70
2022/07/29 07:11:56;;;;;;;9.98;8.73;;;;;;;;;;4970994;28;20155;-70
2022/07/29 07:14:21;;;;;;;9.55;8.57;;;;;;;;;;4993586;28;20438;-70
2022/07/29 07:16:47;;;;;;;9.48;8.65;;;;;;;;;;4955911;28;20039;-70
2022/07/29 07:19:12;;;;;;;10.07;9.18;;;;;;;;;;4956824;28;20400;-68
2022/07/29 07:21:38;;;;;;;9.70;8.80;;;;;;;;;;5001974;28;20048;-70
2022/07/29 07:24:04;;;;;;;10.80;9.90;;;;;;;;;;4972671;28;20034;-70
2022/07/29 07:26:30;;;;;;;10.20;9.43;;;;;;;;;;4970954;28;20035;-70
2022/07/29 07:28:55;;;;;;;9.75;9.05;;;;;;;;;;4989614;28;20058;-71
2022/07/29 07:31:21;;;;;;;9.32;8.63;;;;;;;;;;4964870;28;20218;-70
2022/07/29 07:33:47;;;;;;;9.63;8.93;;;;;;;;;;4963280;28;20046;-70
2022/07/29 07:36:12;;;;;;;10.23;9.23;;;;;;;;;;4989098;28;20559;-70
2022/07/29 07:38:38;;;;;;;9.75;9.05;;;;;;;;;;4982092;28;20029;-70
2022/07/29 07:41:03;;;;;;;10.25;9.25;;;;;;;;;;4963952;28;20042;-69
2022/07/29 07:43:29;;;;;;;9.77;9.07;;;;;;;;;;4975479;28;20131;-70
2022/07/29 07:45:55;;;;;;;9.43;8.73;;;;;;;;;;4988714;28;20529;-70
2022/07/29 07:48:20;;;;;;;10.45;9.73;;;;;;;;;;4988865;28;20038;-70
2022/07/29 07:50:46;;;;;;;10.30;9.27;;;;;;;;;;4988605;28;20042;-70
2022/07/29 07:53:11;;;;;;;9.80;9.07;;;;;;;;;;4977151;28;20044;-70
2022/07/29 07:55:41;;;;;;;9.63;8.82;;;;;;;;;;4968976;28;20487;-70
2022/07/29 07:58:07;;;;;;;9.68;8.77;;;;;;;;;;4973843;28;20043;-70
2022/07/29 08:00:33;;;;;;;9.32;8.32;;;;;;;;;;4957192;28;20043;-69
2022/07/29 08:02:59;;;;;;;8.45;7.75;;;;;;;;;;4969567;28;20081;-70
2022/07/29 08:05:24;;;;;;;8.52;7.82;;;;;;;;;;5022744;28;20503;-70
2022/07/29 08:07:50;;;;;;;8.85;8.25;;;;;;;;;;4958280;28;20039;-70
2022/07/29 08:10:51;;;;;;;9.27;8.57;;;;;;;;;;4985515;28;20092;-70
2022/07/29 08:13:08;;;;;;;;;;;;;;;;;;4976830;28;20039;-69
2022/07/29 08:15:34;;;;;;;8.80;8.10;;;;;;;;;;4971853;28;19914;-69
2022/07/29 08:18:00;;;;;;;9.73;8.85;;;;;;;;;;4955480;28;20073;-69
2022/07/29 08:20:26;;;;;;;8.65;8.05;;;;;;;;;;4990058;28;20029;-69
2022/07/29 08:22:53;;;;;;;8.63;8.02;;;;;;;;;;4978693;28;20025;-69
2022/07/29 08:25:20;;;;;;;10.77;8.50;;;;;;;;;;4968951;28;20039;-70
2022/07/29 08:27:48;;;;;;;9.35;8.55;;;;;;;;;;4981697;28;20073;-69
2022/07/29 08:30:15;;;;;;;9.55;8.75;;;;;;;;;;4973005;28;20029;-69
2022/07/29 08:32:41;;;;;;;8.70;8.00;;;;;;;;;;5010554;28;20426;-70
2022/07/29 08:35:07;;;;;;;8.40;7.80;;;;;;;;;;4969352;28;20066;-69
2022/07/29 08:37:32;;;;;;;8.70;7.90;;;;;;;;;;4985072;28;20035;-70
2022/07/29 08:39:58;;;;;;;8.82;8.10;;;;;;;;;;4961101;28;20634;-69
2022/07/29 08:42:24;;;;;;;8.07;7.45;;;;;;;;;;4954187;28;20068;-69
2022/07/29 08:44:50;;;;;;;8.30;7.50;;;;;;;;;;5002661;28;20029;-69
2022/07/29 08:47:16;;;;;;;8.45;7.65;;;;;;;;;;4963184;28;20043;-69
2022/07/29 08:49:43;;;;;;;8.05;7.25;;;;;;;;;;4950670;28;20031;-70
2022/07/29 08:52:12;;;;;;;8.65;7.40;;;;;;;;;;4977979;28;20562;-70
2022/07/29 08:54:39;;;;;;;7.68;6.97;;;;;;;;;;4971050;28;20140;-70
2022/07/29 08:57:05;;;;;;;10.70;7.95;;;;;;;;;;4969583;28;20491;-70
2022/07/29 08:59:33;;;;;;;8.57;7.68;;;;;;;;;;4985458;28;20033;-70
2022/07/29 09:02:00;;;;;;;7.90;7.10;;;;;;;;;;4954614;28;20560;-70
2022/07/29 09:04:30;;;;;;;8.68;7.40;;;;;;;;;;4967448;28;20079;-70
2022/07/29 09:06:59;;;;;;;8.02;7.22;;;;;;;;;;4978532;28;20426;-70
2022/07/29 09:09:25;;;;;;;8.27;7.38;;;;;;;;;;4968012;28;20401;-70
2022/07/29 09:11:53;;;;;;;7.60;7.07;;;;;;;;;;4970963;28;20042;-70
2022/07/29 09:14:19;;;;;;;8.10;7.28;;;;;;;;;;4979237;28;20131;-70
2022/07/29 09:17:02;;;;;;;7.88;7.18;;;;;;;;;;4958727;28;20493;-70
2022/07/29 09:19:30;;;;;;;8.07;7.38;;;;;;;;;;4950305;28;20092;-70
2022/07/29 09:21:58;;;;;;;8.20;7.60;;;;;;;;;;4977279;28;20464;-70
2022/07/29 09:24:47;;;;;;;8.38;7.57;;;;;;;;;;4987221;28;20091;-70
2022/07/29 09:27:28;;;;;;;9.18;7.43;;;;;;;;;;4969941;28;20074;-69
2022/07/29 09:30:13;;;;;;;8.70;7.90;;;;;;;;;;4972291;28;20035;-69
2022/07/29 09:32:56;;;;;;;8.15;7.38;;;;;;;;;;4997259;28;20031;-69
2022/07/29 09:35:25;;;;;;;7.97;7.20;;;;;;;;;;4943785;28;20043;-69
2022/07/29 09:37:51;;;;;;;7.70;7.00;;;;;;;;;;4988656;28;20039;-69
2022/07/29 09:40:18;;;;;;;7.53;6.93;;;;;;;;;;4975969;28;20050;-69
2022/07/29 09:42:44;;;;;;;6.82;6.32;;;;;;;;;;4985002;28;20039;-69
2022/07/29 09:45:11;;;;;;;7.63;7.00;;;;;;;;;;4969787;28;20074;-70
2022/07/29 09:47:45;;;;;;;8.88;8.07;;;;;;;;;;4978442;28;20151;-70
2022/07/29 09:50:11;;;;;;;8.38;7.53;;;;;;;;;;4999807;28;20038;-70
2022/07/29 09:52:49;;;;;;;8.15;7.45;;;;;;;;;;4967085;28;20451;-70
2022/07/29 09:55:15;;;;;;;8.80;7.82;;;;;;;;;;4949408;28;20035;-69
2022/07/29 09:57:41;;;;;;;9.30;7.32;;;;;;;;;;4980853;28;20383;-69
2022/07/29 10:00:12;;;;;;;7.60;7.00;;;;;;;;;;4981748;28;20479;-69
2022/07/29 10:02:40;;;;;;;7.65;7.03;;;;;;;;;;4955677;28;20036;-69
2022/07/29 10:05:16;;;;;;;7.50;6.97;;;;;;;;;;4952222;28;20027;-69
2022/07/29 10:07:50;;;;;;;7.40;6.80;;;;;;;;;;4969870;28;20069;-69
2022/07/29 10:10:36;;;;;;;7.55;6.93;;;;;;;;;;4979176;28;20039;-70
2022/07/29 10:13:07;;;;;;;8.30;6.80;;;;;;;;;;4960622;28;20035;-70
2022/07/29 10:15:40;;;;;;;6.93;6.43;;;;;;;;;;4987835;28;20135;-70
2022/07/29 10:18:13;;;;;;;7.78;7.20;;;;;;;;;;4997453;28;20040;-70
2022/07/29 10:20:39;;;;;;;7.43;6.72;;;;;;;;;;4975421;28;20070;-70
2022/07/29 10:23:05;;;;;;;12.32;6.80;;;;;;;;;;4990273;28;20039;-70
2022/07/29 10:25:31;;;;;;;7.75;7.15;;;;;;;;;;4975675;28;20039;-70
2022/07/29 10:27:57;;;;;;;7.97;7.22;;;;;;;;;;4950647;28;20425;-70
2022/07/29 10:30:24;;;;;;;9.63;6.93;;;;;;;;;;4967710;28;20086;-70
2022/07/29 10:33:11;;;;;;;8.18;7.55;;;;;;;;;;4963272;28;20132;-70
2022/07/29 10:35:37;;;;;;;10.65;6.75;;;;;;;;;;4987987;28;20168;-70
2022/07/29 10:38:16;;;;;;;8.57;7.82;;;;;;;;;;4976961;28;20545;-70
2022/07/29 10:41:27;;;;;;;10.85;7.45;;;;;;;;;;4947511;28;20069;-69
2022/07/29 10:44:03;;;;;;;8.38;7.60;;;;;;;;;;4974923;28;20079;-70
2022/07/29 10:46:35;;;;;;;8.32;7.65;;;;;;;;;;5013803;28;20035;-69
2022/07/29 10:49:10;;;;;;;9.77;7.70;;;;;;;;;;4956592;28;20126;-70
2022/07/29 10:51:56;;;;;;;8.88;8.18;;;;;;;;;;4958381;28;20190;-70
2022/07/29 10:54:39;;;;;;;8.55;7.78;;;;;;;;;;4968167;28;20054;-70
2022/07/29 10:57:25;;;;;;;8.52;7.88;;;;;;;;;;4972198;28;20039;-70
2022/07/29 11:00:00;;;;;;;8.77;8.07;;;;;;;;;;4953271;28;20047;-68
2022/07/29 11:02:32;;;;;;;9.00;8.23;;;;;;;;;;4981718;28;20144;-70
2022/07/29 11:04:59;;;;;;;9.10;8.23;;;;;;;;;;4953421;28;20078;-70
2022/07/29 11:07:30;;;;;;;8.18;7.40;;;;;;;;;;4967323;28;20050;-70
2022/07/29 11:10:11;;;;;;;9.32;7.75;;;;;;;;;;5001539;28;20388;-70
2022/07/29 11:12:37;;;;;;;9.20;8.40;;;;;;;;;;4951857;28;20046;-70
2022/07/29 11:15:16;;;;;;;8.80;8.15;;;;;;;;;;4970588;28;20039;-70
2022/07/29 11:17:56;;;;;;;8.63;8.02;;;;;;;;;;4970714;28;20039;-70
2022/07/29 11:20:41;;;;;;;9.23;8.45;;;;;;;;;;4974697;28;20049;-69
2022/07/29 11:23:19;;;;;;;9.63;8.73;;;;;;;;;;4974628;28;20067;-69
2022/07/29 11:26:06;;;;;;;10.15;9.25;;;;;;;;;;4974264;28;20043;-69
2022/07/29 11:28:33;;;;;;;9.60;8.70;;;;;;;;;;4978818;28;20174;-69
2022/07/29 11:31:00;;;;;;;8.57;7.40;;;;;;;;;;4963104;28;20031;-69
2022/07/29 11:33:30;;;;;;;7.60;6.80;;;;;;;;;;4970602;28;20129;-68
2022/07/29 11:36:10;;;;;;;21.60;14.90;;;;;;;;;;4969364;28;20027;-66
2022/07/29 11:38:36;;;;;;;18.05;16.33;;;;;;;;;;4963115;28;20506;-68
2022/07/29 11:41:23;;;;;;;15.23;13.85;;;;;;;;;;4985545;28;20173;-68
2022/07/29 11:43:59;;;;;;;14.55;13.45;;;;;;;;;;4964549;28;20046;-69
2022/07/29 11:46:48;;;;;;;14.35;13.43;;;;;;;;;;4994952;28;20032;-71
2022/07/29 11:49:24;;;;;;;13.25;12.40;;;;;;;;;;4969383;28;20027;-70
2022/07/29 11:51:54;;;;;;;13.27;12.48;;;;;;;;;;4980662;28;20035;-70
2022/07/29 11:54:50;;;;;;;13.52;12.73;;;;;;;;;;4978341;28;20037;-69
2022/07/29 11:57:17;;;;;;;14.02;12.88;;;;;;;;;;4977546;28;20041;-69
2022/07/29 11:59:44;;;;;;;15.50;14.02;;;;;;;;;;4998137;28;20293;-69
2022/07/29 12:02:10;;;;;;;14.07;13.00;;;;;;;;;;4976026;28;20040;-69
2022/07/29 12:04:48;;;;;;;14.85;13.38;;;;;;;;;;4974429;28;20033;-68
2022/07/29 12:07:14;;;;;;;13.60;12.50;;;;;;;;;;4973668;28;20039;-67
2022/07/29 12:09:39;;;;;;;13.55;12.45;;;;;;;;;;4992430;28;20504;-67
2022/07/29 12:12:05;;;;;;;13.68;12.65;;;;;;;;;;4966621;28;20031;-68
2022/07/29 12:14:32;;;;;;;15.02;13.93;;;;;;;;;;4973119;28;20077;-67
2022/07/29 12:16:59;;;;;;;14.32;13.23;;;;;;;;;;4993937;28;20291;-68
2022/07/29 12:19:26;;;;;;;13.88;12.85;;;;;;;;;;4965430;28;20037;-68
2022/07/29 12:21:58;;;;;;;13.82;12.63;;;;;;;;;;4947247;28;20122;-69
2022/07/29 12:24:23;;;;;;;15.10;13.80;;;;;;;;;;4957668;28;20467;-67
2022/07/29 12:26:55;;;;;;;14.82;13.80;;;;;;;;;;4976284;28;20085;-68
2022/07/29 12:29:21;;;;;;;15.05;13.85;;;;;;;;;;4957446;28;20479;-67
2022/07/29 12:31:53;;;;;;;15.43;14.23;;;;;;;;;;4957825;28;20043;-67
2022/07/29 12:34:22;;;;;;;16.23;14.85;;;;;;;;;;4985443;28;20122;-67
2022/07/29 12:36:48;;;;;;;15.00;14.00;;;;;;;;;;4984699;28;20036;-68
2022/07/29 12:39:16;;;;;;;15.75;14.35;;;;;;;;;;4966578;28;20043;-68
2022/07/29 12:41:43;;;;;;;14.73;13.57;;;;;;;;;;4954923;28;20043;-68
2022/07/29 12:44:08;;;;;;;17.08;14.30;;;;;;;;;;5005709;28;20408;-68
2022/07/29 12:46:34;;;;;;;16.55;15.02;;;;;;;;;;4970060;28;20025;-68
2022/07/29 12:49:00;;;;;;;15.63;14.43;;;;;;;;;;4960043;28;20173;-70
2022/07/29 12:51:30;;;;;;;14.90;13.77;;;;;;;;;;4974547;28;20396;-70
2022/07/29 12:54:15;;;;;;;14.35;13.25;;;;;;;;;;4986868;28;20035;-70
2022/07/29 12:56:43;;;;;;;14.02;13.02;;;;;;;;;;4969456;28;20515;-69
2022/07/29 12:59:15;;;;;;;13.98;13.07;;;;;;;;;;4968295;28;20972;-70
2022/07/29 13:01:41;;;;;;;14.80;13.60;;;;;;;;;;4948354;28;20039;-69
2022/07/29 13:04:07;;;;;;;14.23;13.23;;;;;;;;;;5012008;28;20057;-70
2022/07/29 13:06:44;;;;;;;14.15;13.10;;;;;;;;;;4977018;28;20067;-70
2022/07/29 13:09:17;;;;;;;14.52;13.32;;;;;;;;;;4996060;28;20044;-69
2022/07/29 13:11:49;;;;;;;13.65;12.65;;;;;;;;;;4983924;28;20124;-70
2022/07/29 13:14:30;;;;;;;14.35;13.27;;;;;;;;;;4977495;28;20039;-70
2022/07/29 13:17:17;;;;;;;13.98;12.85;;;;;;;;;;4950060;28;20050;-69
2022/07/29 13:19:43;;;;;;;14.00;12.90;;;;;;;;;;4982434;28;20116;-69
2022/07/29 13:22:11;;;;;;;13.75;12.60;;;;;;;;;;4999885;28;20052;-69
2022/07/29 13:25:09;;;;;;;14.07;12.85;;;;;;;;;;4978383;28;20070;-69
2022/07/29 13:27:36;;;;;;;13.25;12.25;;;;;;;;;;4961177;28;20042;-70
2022/07/29 13:30:06;;;;;;;15.75;14.15;;;;;;;;;;4959928;28;20118;-69
2022/07/29 13:32:34;;;;;;;16.63;15.18;;;;;;;;;;4960315;28;20511;-68
2022/07/29 13:35:02;;;;;;;17.27;15.88;;;;;;;;;;4960457;28;20039;-69
2022/07/29 13:37:29;;;;;;;16.80;15.20;;;;;;;;;;4961141;28;20043;-68
2022/07/29 13:39:58;;;;;;;16.67;15.13;;;;;;;;;;4961105;28;20034;-69
2022/07/29 13:42:25;;;;;;;16.45;14.95;;;;;;;;;;4959076;28;20129;-69
2022/07/29 13:44:51;;;;;;;16.73;15.13;;;;;;;;;;4960167;28;20054;-68
2022/07/29 13:47:18;;;;;;;15.57;14.38;;;;;;;;;;4958681;28;20125;-67
2022/07/29 13:49:44;;;;;;;15.77;14.48;;;;;;;;;;4962211;28;20061;-68
2022/07/29 13:52:10;;;;;;;16.90;15.60;;;;;;;;;;4961256;28;20562;-68
2022/07/29 13:54:37;;;;;;;14.45;13.45;;;;;;;;;;4960403;28;20041;-69
2022/07/29 13:57:06;;;;;;;13.75;12.73;;;;;;;;;;4959817;28;20043;-68
2022/07/29 13:59:32;;;;;;;13.60;12.50;;;;;;;;;;4960875;28;20039;-69
2022/07/29 14:01:57;;;;;;;13.68;12.68;;;;;;;;;;4960423;28;20046;-69
2022/07/29 14:04:23;;;;;;;13.52;12.45;;;;;;;;;;4989567;28;20045;-69
2022/07/29 14:06:49;;;;;;;17.88;13.07;;;;;;;;;;4981095;28;20062;-69
2022/07/29 14:09:15;;;;;;;15.27;13.70;;;;;;;;;;4952615;28;20877;-69
2022/07/29 14:11:41;;;;;;;13.98;12.82;;;;;;;;;;4951709;28;20074;-69
2022/07/29 14:14:07;;;;;;;15.20;13.93;;;;;;;;;;4972687;28;20042;-69
2022/07/29 14:16:33;;;;;;;14.40;13.23;;;;;;;;;;4963155;28;20050;-68
2022/07/29 14:18:59;;;;;;;14.88;13.77;;;;;;;;;;4961225;28;20032;-69
2022/07/29 14:21:25;;;;;;;15.38;13.98;;;;;;;;;;4975282;28;20051;-68
2022/07/29 14:23:52;;;;;;;16.10;14.57;;;;;;;;;;4953848;28;20031;-68
2022/07/29 14:26:18;;;;;;;15.65;14.10;;;;;;;;;;4956460;28;20796;-68
2022/07/29 14:28:44;;;;;;;16.58;14.90;;;;;;;;;;4960644;28;20040;-68
2022/07/29 14:31:09;;;;;;;14.95;13.57;;;;;;;;;;4986847;28;20114;-68
2022/07/29 14:33:35;;;;;;;15.85;14.40;;;;;;;;;;4969814;28;20122;-68
2022/07/29 14:36:01;;;;;;;14.95;13.65;;;;;;;;;;4957119;28;20506;-68
2022/07/29 14:38:26;;;;;;;14.95;13.75;;;;;;;;;;4977012;28;20033;-69
2022/07/29 14:40:52;;;;;;;15.77;14.38;;;;;;;;;;4951813;28;20054;-68